createdAt,value
2018-01-19T00:00:54.387Z,0.00
2018-01-19T00:01:54.334Z,0.00
2018-01-19T00:02:54.355Z,0.00
2018-01-19T00:03:54.295Z,0.00
2018-01-19T00:04:54.278Z,0.00
2018-01-19T00:05:54.259Z,0.00
2018-01-19T00:06:54.243Z,0.00
2018-01-19T00:07:54.249Z,0.00
2018-01-19T00:08:54.211Z,0.00
2018-01-19T00:09:54.194Z,0.00
2018-01-19T00:10:54.197Z,0.00
2018-01-19T00:11:54.160Z,0.00
2018-01-19T00:12:54.153Z,0.00
2018-01-19T00:13:54.137Z,0.00
2018-01-19T00:14:54.138Z,0.00
2018-01-19T00:15:54.312Z,0.00
2018-01-19T00:16:54.069Z,0.00
2018-01-19T00:17:54.066Z,0.00
2018-01-19T00:18:54.053Z,0.00
2018-01-19T00:19:54.013Z,0.00
2018-01-19T00:20:53.996Z,0.00
2018-01-19T00:21:53.984Z,0.00
2018-01-19T00:22:53.966Z,0.00
2018-01-19T00:23:53.968Z,0.00
2018-01-19T00:24:53.933Z,0.00
2018-01-19T00:25:53.909Z,0.00
2018-01-19T00:26:53.922Z,0.00
2018-01-19T00:27:53.920Z,0.00
2018-01-19T00:28:53.897Z,0.00
2018-01-19T00:29:53.842Z,0.00
2018-01-19T00:30:53.817Z,0.00
2018-01-19T00:31:53.916Z,0.00
2018-01-19T00:32:53.787Z,0.00
2018-01-19T00:33:53.796Z,0.00
2018-01-19T00:34:53.754Z,0.00
2018-01-19T00:35:53.739Z,0.00
2018-01-19T00:36:53.723Z,0.00
2018-01-19T00:37:53.700Z,0.00
2018-01-19T00:38:53.700Z,0.00
2018-01-19T00:39:53.688Z,0.00
2018-01-19T00:40:53.647Z,0.00
2018-01-19T00:41:53.661Z,0.00
2018-01-19T00:42:53.610Z,0.00
2018-01-19T00:43:53.617Z,0.00
2018-01-19T00:44:53.609Z,0.00
2018-01-19T00:45:53.568Z,0.00
2018-01-19T00:46:53.548Z,0.00
2018-01-19T00:47:53.523Z,0.00
2018-01-19T00:48:53.515Z,0.00
2018-01-19T00:49:53.528Z,0.00
2018-01-19T00:50:53.478Z,0.00
2018-01-19T00:51:53.456Z,0.00
2018-01-19T00:52:53.439Z,0.00
2018-01-19T00:53:53.420Z,0.00
2018-01-19T00:54:53.435Z,0.00
2018-01-19T00:55:53.396Z,0.00
2018-01-19T00:56:53.420Z,0.00
2018-01-19T00:57:53.352Z,0.00
2018-01-19T00:58:53.330Z,0.00
2018-01-19T00:59:53.348Z,0.00
2018-01-19T01:00:53.348Z,0.00
2018-01-19T01:01:53.282Z,0.00
2018-01-19T01:02:53.271Z,0.00
2018-01-19T01:03:53.258Z,0.00
2018-01-19T01:04:53.261Z,0.00
2018-01-19T01:05:53.214Z,0.00
2018-01-19T01:06:53.198Z,0.00
2018-01-19T01:07:53.181Z,0.00
2018-01-19T01:08:53.172Z,0.00
2018-01-19T01:09:53.169Z,0.00
2018-01-19T01:10:53.150Z,0.00
2018-01-19T01:11:53.144Z,0.00
2018-01-19T01:12:53.111Z,0.00
2018-01-19T01:13:53.083Z,0.00
2018-01-19T01:14:53.083Z,0.00
2018-01-19T01:15:53.064Z,0.00
2018-01-19T01:16:53.030Z,0.00
2018-01-19T01:17:53.000Z,0.00
2018-01-19T01:18:52.991Z,0.00
2018-01-19T01:19:52.981Z,0.00
2018-01-19T01:20:52.981Z,0.00
2018-01-19T01:21:52.937Z,0.00
2018-01-19T01:22:52.919Z,0.00
2018-01-19T01:23:52.904Z,0.00
2018-01-19T01:24:52.894Z,0.00
2018-01-19T01:25:52.909Z,0.00
2018-01-19T01:26:52.850Z,0.00
2018-01-19T01:27:52.865Z,0.00
2018-01-19T01:28:52.847Z,0.00
2018-01-19T01:29:52.805Z,0.00
2018-01-19T01:30:52.809Z,0.00
2018-01-19T01:31:52.771Z,0.00
2018-01-19T01:32:52.747Z,0.00
2018-01-19T01:33:52.738Z,0.00
2018-01-19T01:34:52.712Z,0.00
2018-01-19T01:35:52.721Z,0.00
2018-01-19T01:36:52.677Z,0.00
2018-01-19T01:37:52.670Z,0.00
2018-01-19T01:38:52.648Z,0.00
2018-01-19T01:39:52.624Z,0.00
2018-01-19T01:40:52.659Z,0.00
2018-01-19T01:41:52.591Z,0.00
2018-01-19T01:42:52.589Z,0.00
2018-01-19T01:43:52.595Z,0.00
2018-01-19T01:44:52.540Z,0.00
2018-01-19T01:45:52.545Z,0.00
2018-01-19T01:46:52.566Z,0.00
2018-01-19T01:47:52.483Z,0.00
2018-01-19T01:48:52.474Z,0.00
2018-01-19T01:49:52.448Z,0.00
2018-01-19T01:50:52.434Z,0.00
2018-01-19T01:51:52.434Z,0.00
2018-01-19T01:52:52.394Z,0.00
2018-01-19T01:53:52.383Z,0.00
2018-01-19T01:54:52.373Z,0.00
2018-01-19T01:55:52.351Z,0.00
2018-01-19T01:56:52.383Z,0.00
2018-01-19T01:57:52.340Z,0.00
2018-01-19T01:58:52.304Z,0.00
2018-01-19T01:59:52.276Z,0.00
2018-01-19T02:00:52.265Z,0.00
2018-01-19T02:01:52.302Z,0.00
2018-01-19T02:02:52.249Z,0.00
2018-01-19T02:03:52.337Z,0.00
2018-01-19T02:04:52.214Z,0.00
2018-01-19T02:05:52.177Z,0.00
2018-01-19T02:06:52.416Z,0.00
2018-01-19T02:07:52.171Z,0.00
2018-01-19T02:08:52.118Z,0.00
2018-01-19T02:09:52.104Z,0.00
2018-01-19T02:10:52.087Z,0.00
2018-01-19T02:11:52.072Z,0.00
2018-01-19T02:12:52.074Z,0.00
2018-01-19T02:13:52.034Z,0.00
2018-01-19T02:14:52.016Z,0.00
2018-01-19T02:15:52.002Z,0.00
2018-01-19T02:16:51.985Z,0.00
2018-01-19T02:17:52.014Z,0.00
2018-01-19T02:18:51.966Z,0.00
2018-01-19T02:19:51.925Z,0.00
2018-01-19T02:20:51.915Z,0.00
2018-01-19T02:21:51.890Z,0.00
2018-01-19T02:22:51.879Z,0.00
2018-01-19T02:23:51.887Z,0.00
2018-01-19T02:24:51.844Z,0.00
2018-01-19T02:25:51.830Z,0.00
2018-01-19T02:26:51.807Z,0.00
2018-01-19T02:27:51.799Z,0.00
2018-01-19T02:28:51.804Z,0.00
2018-01-19T02:29:51.757Z,0.00
2018-01-19T02:30:51.736Z,0.00
2018-01-19T02:31:51.719Z,0.00
2018-01-19T02:32:51.732Z,0.00
2018-01-19T02:33:51.723Z,0.00
2018-01-19T02:34:51.667Z,0.00
2018-01-19T02:35:51.658Z,0.00
2018-01-19T02:36:51.628Z,0.00
2018-01-19T02:37:51.618Z,0.00
2018-01-19T02:38:51.652Z,0.00
2018-01-19T02:39:51.613Z,0.00
2018-01-19T02:40:51.564Z,0.00
2018-01-19T02:41:51.557Z,0.00
2018-01-19T02:42:51.538Z,0.00
2018-01-19T02:43:51.532Z,0.00
2018-01-19T02:44:51.520Z,0.00
2018-01-19T02:45:51.478Z,0.00
2018-01-19T02:46:51.456Z,0.00
2018-01-19T02:47:51.464Z,0.00
2018-01-19T02:48:51.447Z,0.00
2018-01-19T02:49:51.431Z,0.00
2018-01-19T02:50:51.614Z,0.00
2018-01-19T02:51:51.371Z,0.00
2018-01-19T02:52:51.351Z,0.00
2018-01-19T02:53:51.333Z,0.00
2018-01-19T02:54:51.347Z,0.00
2018-01-19T02:55:51.301Z,0.00
2018-01-19T02:56:51.294Z,0.00
2018-01-19T02:57:51.271Z,0.00
2018-01-19T02:58:51.258Z,0.00
2018-01-19T02:59:51.272Z,0.00
2018-01-19T03:00:51.213Z,0.00
2018-01-19T03:01:51.191Z,0.00
2018-01-19T03:02:51.225Z,0.00
2018-01-19T03:03:51.159Z,0.00
2018-01-19T03:04:51.165Z,0.00
2018-01-19T03:05:51.120Z,0.00
2018-01-19T03:06:51.106Z,0.00
2018-01-19T03:07:51.092Z,0.00
2018-01-19T03:08:51.073Z,0.00
2018-01-19T03:09:51.095Z,0.00
2018-01-19T03:10:51.035Z,0.00
2018-01-19T03:11:51.020Z,0.00
2018-01-19T03:12:51.005Z,0.00
2018-01-19T03:13:50.986Z,0.00
2018-01-19T03:14:50.972Z,0.00
2018-01-19T03:15:51.000Z,0.00
2018-01-19T03:16:50.936Z,0.00
2018-01-19T03:17:50.918Z,0.00
2018-01-19T03:18:50.925Z,0.00
2018-01-19T03:19:50.885Z,0.00
2018-01-19T03:20:50.886Z,0.00
2018-01-19T03:21:50.854Z,0.00
2018-01-19T03:22:50.846Z,0.00
2018-01-19T03:23:50.808Z,0.00
2018-01-19T03:24:50.800Z,0.00
2018-01-19T03:25:50.821Z,0.00
2018-01-19T03:26:50.759Z,0.00
2018-01-19T03:27:50.748Z,0.00
2018-01-19T03:28:50.721Z,0.00
2018-01-19T03:29:50.715Z,0.00
2018-01-19T03:30:50.713Z,0.00
2018-01-19T03:31:50.667Z,0.00
2018-01-19T03:32:50.662Z,0.00
2018-01-19T03:33:50.666Z,0.00
2018-01-19T03:34:50.626Z,0.00
2018-01-19T03:35:50.680Z,0.00
2018-01-19T03:36:50.581Z,0.00
2018-01-19T03:37:50.564Z,0.00
2018-01-19T03:38:50.556Z,0.00
2018-01-19T03:39:50.534Z,0.00
2018-01-19T03:40:50.563Z,0.00
2018-01-19T03:41:50.494Z,0.00
2018-01-19T03:42:50.481Z,0.00
2018-01-19T03:43:50.456Z,0.00
2018-01-19T03:44:50.449Z,0.00
2018-01-19T03:45:50.680Z,0.00
2018-01-19T03:46:50.500Z,0.00
2018-01-19T03:47:50.397Z,0.00
2018-01-19T03:48:50.394Z,0.00
2018-01-19T03:49:51.266Z,0.00
2018-01-19T03:50:50.368Z,0.00
2018-01-19T03:51:50.342Z,0.00
2018-01-19T03:52:50.314Z,0.00
2018-01-19T03:53:50.292Z,0.00
2018-01-19T03:54:50.281Z,0.00
2018-01-19T03:55:50.278Z,0.00
2018-01-19T03:56:50.252Z,0.00
2018-01-19T03:57:50.225Z,0.00
2018-01-19T03:58:50.237Z,0.00
2018-01-19T03:59:50.189Z,0.00
2018-01-19T04:00:50.170Z,0.00
2018-01-19T04:01:50.201Z,0.00
2018-01-19T04:02:50.184Z,0.00
2018-01-19T04:03:50.177Z,0.00
2018-01-19T04:04:50.116Z,0.00
2018-01-19T04:05:50.080Z,0.00
2018-01-19T04:06:50.123Z,0.00
2018-01-19T04:07:50.069Z,0.00
2018-01-19T04:08:50.054Z,0.00
2018-01-19T04:09:50.031Z,0.00
2018-01-19T04:10:50.010Z,0.00
2018-01-19T04:11:50.004Z,0.00
2018-01-19T04:12:50.006Z,0.00
2018-01-19T04:13:49.959Z,0.00
2018-01-19T04:14:49.944Z,0.00
2018-01-19T04:15:49.970Z,0.00
2018-01-19T04:16:50.760Z,0.00
2018-01-19T04:17:50.132Z,0.00
2018-01-19T04:18:49.876Z,0.00
2018-01-19T04:19:49.883Z,0.00
2018-01-19T04:20:49.846Z,0.00
2018-01-19T04:21:49.830Z,0.00
2018-01-19T04:22:49.839Z,0.00
2018-01-19T04:23:49.799Z,0.00
2018-01-19T04:24:49.773Z,0.00
2018-01-19T04:25:49.755Z,0.00
2018-01-19T04:26:49.737Z,0.00
2018-01-19T04:27:49.751Z,0.00
2018-01-19T04:29:04.267Z,0.00
2018-01-19T04:29:49.685Z,0.00
2018-01-19T04:30:49.668Z,0.00
2018-01-19T04:31:50.301Z,0.00
2018-01-19T04:32:49.884Z,0.00
2018-01-19T04:33:49.625Z,0.00
2018-01-19T04:34:49.628Z,0.00
2018-01-19T04:35:49.568Z,0.00
2018-01-19T04:36:49.564Z,0.00
2018-01-19T04:37:49.572Z,0.00
2018-01-19T04:38:49.549Z,0.00
2018-01-19T04:39:49.515Z,0.00
2018-01-19T04:40:49.515Z,0.00
2018-01-19T04:41:49.477Z,0.00
2018-01-19T04:42:49.462Z,0.00
2018-01-19T04:43:49.470Z,0.00
2018-01-19T04:44:49.431Z,0.00
2018-01-19T04:45:49.408Z,0.00
2018-01-19T04:46:49.399Z,0.00
2018-01-19T04:47:49.382Z,0.00
2018-01-19T04:48:49.389Z,0.00
2018-01-19T04:49:49.371Z,0.00
2018-01-19T04:50:49.319Z,0.00
2018-01-19T04:51:49.308Z,0.00
2018-01-19T04:52:49.287Z,0.00
2018-01-19T04:53:49.287Z,0.00
2018-01-19T04:54:49.274Z,0.00
2018-01-19T04:55:49.232Z,0.00
2018-01-19T04:56:49.216Z,0.00
2018-01-19T04:57:49.207Z,0.00
2018-01-19T04:58:49.179Z,0.00
2018-01-19T04:59:49.190Z,0.00
2018-01-19T05:00:49.156Z,0.00
2018-01-19T05:01:49.130Z,0.00
2018-01-19T05:02:49.117Z,0.00
2018-01-19T05:03:49.099Z,0.00
2018-01-19T05:04:49.153Z,0.00
2018-01-19T05:05:49.055Z,0.00
2018-01-19T05:06:49.056Z,0.00
2018-01-19T05:07:49.058Z,0.00
2018-01-19T05:08:49.014Z,0.00
2018-01-19T05:09:48.991Z,0.00
2018-01-19T05:10:48.998Z,0.00
2018-01-19T05:11:48.961Z,0.00
2018-01-19T05:12:48.937Z,0.00
2018-01-19T05:13:48.919Z,0.00
2018-01-19T05:14:48.909Z,0.00
2018-01-19T05:15:48.906Z,0.00
2018-01-19T05:16:48.869Z,0.00
2018-01-19T05:17:48.857Z,0.00
2018-01-19T05:18:48.839Z,0.00
2018-01-19T05:19:48.845Z,0.00
2018-01-19T05:20:48.862Z,0.00
2018-01-19T05:21:48.793Z,0.00
2018-01-19T05:22:48.766Z,0.00
2018-01-19T05:23:48.756Z,0.00
2018-01-19T05:24:48.729Z,0.00
2018-01-19T05:25:48.739Z,0.00
2018-01-19T05:26:48.678Z,0.00
2018-01-19T05:27:48.662Z,0.00
2018-01-19T05:28:48.696Z,0.00
2018-01-19T05:29:48.646Z,0.00
2018-01-19T05:30:49.288Z,0.00
2018-01-19T05:31:48.632Z,0.00
2018-01-19T05:32:48.606Z,0.00
2018-01-19T05:33:48.573Z,0.00
2018-01-19T05:34:48.559Z,0.00
2018-01-19T05:35:48.555Z,0.00
2018-01-19T05:36:48.519Z,0.00
2018-01-19T05:37:48.547Z,0.00
2018-01-19T05:38:48.478Z,0.00
2018-01-19T05:39:48.468Z,0.00
2018-01-19T05:40:48.473Z,0.00
2018-01-19T05:41:48.452Z,0.00
2018-01-19T05:42:48.420Z,0.00
2018-01-19T05:43:48.404Z,0.00
2018-01-19T05:44:48.389Z,0.00
2018-01-19T05:45:48.362Z,0.00
2018-01-19T05:46:48.364Z,0.00
2018-01-19T05:47:48.360Z,0.00
2018-01-19T05:48:48.349Z,0.00
2018-01-19T05:49:48.299Z,0.00
2018-01-19T05:50:48.288Z,4.00
2018-01-19T05:51:48.266Z,4.00
2018-01-19T05:52:48.833Z,4.00
2018-01-19T05:53:48.229Z,4.00
2018-01-19T05:54:48.223Z,4.00
2018-01-19T05:55:48.198Z,4.00
2018-01-19T05:56:48.174Z,4.00
2018-01-19T05:57:48.191Z,4.00
2018-01-19T05:58:48.146Z,4.00
2018-01-19T05:59:48.119Z,4.00
2018-01-19T06:00:48.099Z,4.00
2018-01-19T06:01:48.089Z,4.00
2018-01-19T06:02:48.822Z,4.00
2018-01-19T06:03:48.071Z,4.00
2018-01-19T06:04:48.058Z,4.00
2018-01-19T06:05:48.011Z,4.00
2018-01-19T06:06:48.002Z,4.00
2018-01-19T06:07:48.012Z,4.00
2018-01-19T06:08:47.992Z,4.00
2018-01-19T06:09:47.940Z,4.00
2018-01-19T06:10:47.931Z,4.00
2018-01-19T06:11:47.936Z,4.00
2018-01-19T06:12:47.893Z,4.00
2018-01-19T06:13:47.916Z,4.00
2018-01-19T06:14:47.855Z,4.00
2018-01-19T06:15:47.841Z,4.00
2018-01-19T06:16:47.826Z,4.00
2018-01-19T06:17:47.805Z,4.00
2018-01-19T06:18:47.813Z,4.00
2018-01-19T06:19:47.780Z,4.00
2018-01-19T06:27:30.911Z,4.00
2018-01-19T06:27:55.263Z,4.00
2018-01-19T06:28:55.388Z,4.00
2018-01-19T06:29:55.258Z,4.00
2018-01-19T06:30:55.226Z,4.00
2018-01-19T06:31:55.197Z,4.00
2018-01-19T06:32:55.190Z,4.00
2018-01-19T06:33:55.164Z,4.00
2018-01-19T06:34:55.189Z,4.00
2018-01-19T06:35:55.123Z,4.00
2018-01-19T06:36:55.141Z,4.00
2018-01-19T06:37:55.103Z,4.00
2018-01-19T06:38:55.074Z,4.00
2018-01-19T06:39:55.319Z,4.00
2018-01-19T06:40:55.081Z,4.00
2018-01-19T06:41:55.017Z,4.00
2018-01-19T06:42:55.037Z,4.00
2018-01-19T06:43:54.989Z,4.00
2018-01-19T06:44:54.972Z,4.00
2018-01-19T06:45:54.958Z,4.00
2018-01-19T06:46:54.960Z,4.00
2018-01-19T06:47:54.913Z,4.00
2018-01-19T06:48:54.897Z,4.00
2018-01-19T06:49:54.887Z,0.00
2018-01-19T06:50:54.905Z,0.00
2018-01-19T06:51:54.873Z,0.00
2018-01-19T06:52:54.830Z,4.00
2018-01-19T06:53:54.809Z,4.00
2018-01-19T06:54:54.801Z,4.00
2018-01-19T06:55:54.779Z,4.00
2018-01-19T06:56:54.796Z,4.00
2018-01-19T06:57:54.776Z,4.00
2018-01-19T06:58:54.796Z,4.00
2018-01-19T06:59:54.713Z,4.00
2018-01-19T07:00:54.702Z,4.00
2018-01-19T07:01:54.700Z,4.00
2018-01-19T07:02:54.921Z,4.00
2018-01-19T07:03:54.639Z,4.00
2018-01-19T07:04:54.629Z,4.00
2018-01-19T07:05:54.600Z,8.00
2018-01-19T07:06:55.084Z,4.00
2018-01-19T07:07:54.595Z,8.00
2018-01-19T07:08:54.558Z,8.00
2018-01-19T07:09:54.542Z,8.00
2018-01-19T07:10:54.529Z,8.00
2018-01-19T07:11:54.512Z,8.00
2018-01-19T07:12:54.564Z,12.00
2018-01-19T07:13:54.470Z,8.00
2018-01-19T07:14:54.458Z,12.00
2018-01-19T07:15:54.439Z,16.00
2018-01-19T07:16:54.423Z,16.00
2018-01-19T07:17:54.436Z,16.00
2018-01-19T07:18:54.403Z,16.00
2018-01-19T07:19:54.406Z,16.00
2018-01-19T07:20:54.367Z,20.00
2018-01-19T07:21:54.340Z,20.00
2018-01-19T07:22:54.556Z,20.00
2018-01-19T07:23:54.424Z,24.00
2018-01-19T07:24:54.281Z,24.00
2018-01-19T07:25:54.273Z,24.00
2018-01-19T07:26:54.243Z,28.00
2018-01-19T07:27:54.259Z,32.00
2018-01-19T07:28:54.237Z,32.00
2018-01-19T07:29:54.203Z,28.00
2018-01-19T07:30:54.187Z,36.00
2018-01-19T07:31:54.173Z,32.00
2018-01-19T07:32:54.149Z,36.00
2018-01-19T07:33:54.166Z,36.00
2018-01-19T07:34:54.115Z,40.00
2018-01-19T07:35:54.097Z,44.00
2018-01-19T07:36:54.078Z,44.00
2018-01-19T07:37:54.066Z,44.00
2018-01-19T07:38:54.055Z,44.00
2018-01-19T07:39:54.047Z,52.00
2018-01-19T07:40:54.060Z,52.00
2018-01-19T07:41:53.995Z,56.00
2018-01-19T07:42:53.981Z,52.00
2018-01-19T07:43:53.962Z,56.00
2018-01-19T07:44:53.962Z,60.00
2018-01-19T07:45:53.941Z,56.00
2018-01-19T07:46:53.906Z,64.00
2018-01-19T07:47:53.941Z,56.00
2018-01-19T07:48:53.875Z,56.00
2018-01-19T07:49:53.901Z,48.00
2018-01-19T07:50:54.406Z,48.00
2018-01-19T07:51:53.829Z,64.00
2018-01-19T07:52:53.803Z,64.00
2018-01-19T07:53:53.784Z,68.00
2018-01-19T07:54:53.790Z,68.00
2018-01-19T07:55:53.755Z,72.00
2018-01-19T07:56:53.751Z,80.00
2018-01-19T07:57:53.761Z,80.00
2018-01-19T07:58:53.697Z,108.00
2018-01-19T07:59:53.729Z,100.00
2018-01-19T08:00:53.673Z,104.00
2018-01-19T08:01:53.647Z,88.00
2018-01-19T08:02:53.648Z,84.00
2018-01-19T08:03:53.616Z,84.00
2018-01-19T08:04:53.618Z,88.00
2018-01-19T08:05:53.583Z,104.00
2018-01-19T08:06:53.786Z,108.00
2018-01-19T08:07:53.544Z,100.00
2018-01-19T08:08:53.755Z,104.00
2018-01-19T08:09:53.523Z,124.00
2018-01-19T08:10:54.417Z,116.00
2018-01-19T08:11:53.484Z,108.00
2018-01-19T08:12:53.500Z,104.00
2018-01-19T08:13:53.443Z,96.00
2018-01-19T08:14:53.426Z,104.00
2018-01-19T08:15:53.415Z,104.00
2018-01-19T08:16:53.415Z,116.00
2018-01-19T08:17:53.379Z,120.00
2018-01-19T08:18:53.392Z,116.00
2018-01-19T08:19:53.342Z,116.00
2018-01-19T08:20:53.331Z,128.00
2018-01-19T08:21:53.327Z,124.00
2018-01-19T08:22:53.291Z,128.00
2018-01-19T08:23:53.279Z,132.00
2018-01-19T08:24:53.274Z,132.00
2018-01-19T08:25:53.280Z,128.00
2018-01-19T08:26:53.249Z,128.00
2018-01-19T08:27:53.293Z,132.00
2018-01-19T08:28:53.234Z,140.00
2018-01-19T08:29:53.178Z,156.00
2018-01-19T08:30:53.151Z,144.00
2018-01-19T08:31:53.161Z,144.00
2018-01-19T08:32:53.133Z,144.00
2018-01-19T08:33:53.122Z,148.00
2018-01-19T08:34:53.133Z,144.00
2018-01-19T08:35:53.068Z,164.00
2018-01-19T08:36:53.090Z,144.00
2018-01-19T08:37:53.032Z,144.00
2018-01-19T08:38:53.243Z,144.00
2018-01-19T08:39:53.000Z,144.00
2018-01-19T08:40:52.982Z,144.00
2018-01-19T08:41:52.973Z,148.00
2018-01-19T08:42:52.990Z,152.00
2018-01-19T08:43:52.963Z,168.00
2018-01-19T08:44:52.912Z,172.00
2018-01-19T08:45:52.897Z,156.00
2018-01-19T08:46:52.889Z,176.00
2018-01-19T08:47:52.901Z,192.00
2018-01-19T08:48:52.849Z,176.00
2018-01-19T08:49:52.831Z,208.00
2018-01-19T08:50:52.819Z,200.00
2018-01-19T08:51:52.799Z,220.00
2018-01-19T08:52:52.801Z,212.00
2018-01-19T08:53:52.764Z,208.00
2018-01-19T08:54:52.745Z,232.00
2018-01-19T08:55:52.740Z,204.00
2018-01-19T08:56:53.667Z,188.00
2018-01-19T08:57:52.710Z,172.00
2018-01-19T08:58:52.776Z,316.00
2018-01-19T08:59:52.659Z,340.00
2018-01-19T09:00:52.643Z,292.00
2018-01-19T09:01:52.630Z,276.00
2018-01-19T09:02:52.608Z,292.00
2018-01-19T09:03:52.780Z,236.00
2018-01-19T09:04:52.589Z,236.00
2018-01-19T09:05:52.562Z,248.00
2018-01-19T09:06:52.540Z,328.00
2018-01-19T09:07:52.526Z,328.00
2018-01-19T09:08:52.539Z,344.00
2018-01-19T09:09:52.496Z,364.00
2018-01-19T09:10:52.478Z,416.00
2018-01-19T09:11:53.404Z,396.00
2018-01-19T09:12:52.720Z,412.00
2018-01-19T09:13:52.461Z,556.00
2018-01-19T09:14:52.441Z,448.00
2018-01-19T09:15:52.392Z,460.00
2018-01-19T09:16:52.905Z,348.00
2018-01-19T09:17:52.404Z,656.00
2018-01-19T09:18:52.341Z,468.00
2018-01-19T09:19:52.345Z,444.00
2018-01-19T09:20:52.333Z,352.00
2018-01-19T09:21:52.308Z,420.00
2018-01-19T09:22:52.268Z,368.00
2018-01-19T09:23:52.272Z,336.00
2018-01-19T09:24:52.243Z,368.00
2018-01-19T09:25:52.953Z,296.00
2018-01-19T09:26:52.425Z,196.00
2018-01-19T09:27:52.186Z,168.00
2018-01-19T09:28:52.215Z,188.00
2018-01-19T09:29:52.152Z,240.00
2018-01-19T09:30:52.144Z,276.00
2018-01-19T09:31:52.910Z,248.00
2018-01-19T09:32:52.099Z,244.00
2018-01-19T09:33:52.107Z,272.00
2018-01-19T09:34:52.069Z,296.00
2018-01-19T09:35:52.072Z,248.00
2018-01-19T09:36:52.052Z,340.00
2018-01-19T09:37:52.019Z,280.00
2018-01-19T09:38:52.003Z,224.00
2018-01-19T09:39:52.914Z,80.00
2018-01-19T09:40:52.976Z,244.00
2018-01-19T09:41:53.141Z,44.00
2018-01-19T09:42:51.933Z,264.00
2018-01-19T09:43:51.967Z,208.00
2018-01-19T09:44:51.893Z,236.00
2018-01-19T09:45:51.905Z,284.00
2018-01-19T09:46:51.890Z,360.00
2018-01-19T09:47:51.844Z,492.00
2018-01-19T09:48:51.832Z,608.00
2018-01-19T09:49:51.831Z,596.00
2018-01-19T09:50:51.799Z,516.00
2018-01-19T09:51:51.809Z,584.00
2018-01-19T09:52:52.407Z,648.00
2018-01-19T09:53:51.742Z,592.00
2018-01-19T09:54:51.729Z,576.00
2018-01-19T09:55:52.046Z,644.00
2018-01-19T09:56:51.747Z,640.00
2018-01-19T09:57:51.929Z,604.00
2018-01-19T09:58:51.667Z,624.00
2018-01-19T09:59:51.674Z,584.00
2018-01-19T10:00:51.632Z,520.00
2018-01-19T10:01:51.614Z,376.00
2018-01-19T10:02:51.616Z,356.00
2018-01-19T10:03:51.587Z,332.00
2018-01-19T10:04:51.572Z,296.00
2018-01-19T10:05:51.550Z,284.00
2018-01-19T10:06:51.537Z,272.00
2018-01-19T10:07:51.531Z,252.00
2018-01-19T10:08:51.508Z,256.00
2018-01-19T10:09:51.471Z,172.00
2018-01-19T10:10:51.459Z,160.00
2018-01-19T10:11:51.468Z,236.00
2018-01-19T10:12:51.486Z,236.00
2018-01-19T10:13:51.409Z,188.00
2018-01-19T10:14:51.390Z,204.00
2018-01-19T10:15:51.373Z,208.00
2018-01-19T10:16:51.363Z,252.00
2018-01-19T10:17:51.381Z,316.00
2018-01-19T10:18:51.323Z,296.00
2018-01-19T10:19:51.311Z,336.00
2018-01-19T10:20:51.337Z,380.00
2018-01-19T10:21:51.278Z,292.00
2018-01-19T10:22:51.404Z,264.00
2018-01-19T10:23:51.268Z,276.00
2018-01-19T10:24:51.247Z,272.00
2018-01-19T10:25:51.210Z,280.00
2018-01-19T10:26:51.254Z,272.00
2018-01-19T10:27:52.009Z,276.00
2018-01-19T10:28:51.925Z,284.00
2018-01-19T10:29:51.141Z,264.00
2018-01-19T10:30:51.135Z,272.00
2018-01-19T10:31:51.116Z,288.00
2018-01-19T10:32:51.118Z,268.00
2018-01-19T10:33:51.080Z,244.00
2018-01-19T10:34:51.056Z,204.00
2018-01-19T10:35:51.048Z,192.00
2018-01-19T10:36:51.060Z,224.00
2018-01-19T10:37:51.011Z,228.00
2018-01-19T10:38:51.043Z,280.00
2018-01-19T10:39:50.974Z,248.00
2018-01-19T10:40:50.960Z,356.00
2018-01-19T10:41:50.945Z,316.00
2018-01-19T10:42:50.945Z,268.00
2018-01-19T10:43:50.940Z,296.00
2018-01-19T10:44:51.112Z,340.00
2018-01-19T10:45:50.877Z,276.00
2018-01-19T10:46:50.851Z,244.00
2018-01-19T10:47:50.840Z,240.00
2018-01-19T10:48:50.856Z,204.00
2018-01-19T10:49:50.812Z,244.00
2018-01-19T10:50:50.793Z,256.00
2018-01-19T10:51:50.772Z,316.00
2018-01-19T10:52:50.799Z,360.00
2018-01-19T10:53:50.759Z,324.00
2018-01-19T10:54:50.740Z,300.00
2018-01-19T10:55:50.706Z,256.00
2018-01-19T10:56:50.693Z,208.00
2018-01-19T10:57:50.704Z,196.00
2018-01-19T10:58:50.689Z,260.00
2018-01-19T10:59:50.663Z,260.00
2018-01-19T11:00:50.622Z,208.00
2018-01-19T11:01:50.611Z,168.00
2018-01-19T11:02:50.626Z,204.00
2018-01-19T11:03:50.575Z,204.00
2018-01-19T11:04:50.608Z,192.00
2018-01-19T11:05:51.431Z,156.00
2018-01-19T11:06:50.523Z,152.00
2018-01-19T11:07:50.497Z,172.00
2018-01-19T11:08:50.496Z,192.00
2018-01-19T11:09:50.526Z,236.00
2018-01-19T11:10:50.480Z,248.00
2018-01-19T11:11:50.443Z,236.00
2018-01-19T11:12:50.434Z,248.00
2018-01-19T11:13:50.973Z,236.00
2018-01-19T11:14:50.438Z,212.00
2018-01-19T11:15:50.401Z,252.00
2018-01-19T11:16:50.362Z,268.00
2018-01-19T11:17:50.346Z,272.00
2018-01-19T11:18:50.323Z,296.00
2018-01-19T11:19:50.302Z,256.00
2018-01-19T11:20:50.319Z,344.00
2018-01-19T11:21:50.284Z,284.00
2018-01-19T11:22:50.252Z,248.00
2018-01-19T11:23:50.240Z,292.00
2018-01-19T11:24:50.232Z,348.00
2018-01-19T11:25:50.214Z,348.00
2018-01-19T11:26:50.215Z,320.00
2018-01-19T11:27:50.172Z,404.00
2018-01-19T11:28:50.230Z,508.00
2018-01-19T11:29:50.159Z,464.00
2018-01-19T11:30:50.197Z,392.00
2018-01-19T11:31:50.140Z,340.00
2018-01-19T11:32:50.111Z,420.00
2018-01-19T11:33:50.121Z,412.00
2018-01-19T11:34:50.095Z,420.00
2018-01-19T11:35:50.057Z,424.00
2018-01-19T11:36:50.054Z,460.00
2018-01-19T11:37:49.995Z,352.00
2018-01-19T11:38:50.005Z,288.00
2018-01-19T11:39:51.008Z,320.00
2018-01-19T11:40:49.971Z,380.00
2018-01-19T11:41:49.971Z,376.00
2018-01-19T11:42:49.960Z,504.00
2018-01-19T11:43:49.908Z,368.00
2018-01-19T11:44:49.958Z,360.00
2018-01-19T11:45:49.883Z,316.00
2018-01-19T11:46:49.893Z,332.00
2018-01-19T11:47:49.855Z,452.00
2018-01-19T11:48:49.872Z,420.00
2018-01-19T11:49:49.825Z,344.00
2018-01-19T11:50:49.822Z,340.00
2018-01-19T11:51:49.792Z,500.00
2018-01-19T11:52:49.806Z,428.00
2018-01-19T11:53:49.761Z,364.00
2018-01-19T11:54:49.732Z,284.00
2018-01-19T11:55:49.746Z,356.00
2018-01-19T11:56:49.708Z,312.00
2018-01-19T11:57:49.702Z,268.00
2018-01-19T11:58:49.674Z,272.00
2018-01-19T11:59:49.680Z,252.00
2018-01-19T12:00:49.660Z,324.00
2018-01-19T12:01:49.613Z,236.00
2018-01-19T12:02:50.437Z,228.00
2018-01-19T12:03:49.604Z,280.00
2018-01-19T12:04:50.436Z,288.00
2018-01-19T12:05:49.551Z,268.00
2018-01-19T12:06:49.539Z,296.00
2018-01-19T12:07:49.584Z,256.00
2018-01-19T12:08:49.537Z,224.00
2018-01-19T12:09:49.477Z,224.00
2018-01-19T12:10:49.474Z,240.00
2018-01-19T12:11:49.443Z,236.00
2018-01-19T12:12:49.446Z,212.00
2018-01-19T12:13:49.971Z,264.00
2018-01-19T12:14:49.379Z,276.00
2018-01-19T12:15:49.417Z,256.00
2018-01-19T12:16:49.367Z,228.00
2018-01-19T12:17:49.343Z,236.00
2018-01-19T12:18:49.995Z,208.00
2018-01-19T12:19:49.347Z,188.00
2018-01-19T12:20:49.298Z,164.00
2018-01-19T12:21:49.318Z,172.00
2018-01-19T12:22:49.267Z,164.00
2018-01-19T12:23:49.268Z,176.00
2018-01-19T12:24:49.227Z,176.00
2018-01-19T12:25:49.967Z,152.00
2018-01-19T12:26:49.214Z,168.00
2018-01-19T12:27:49.217Z,208.00
2018-01-19T12:28:49.181Z,204.00
2018-01-19T12:29:49.137Z,188.00
2018-01-19T12:30:49.168Z,180.00
2018-01-19T12:31:50.218Z,204.00
2018-01-19T12:32:49.070Z,196.00
2018-01-19T12:33:49.101Z,200.00
2018-01-19T12:34:49.950Z,200.00
2018-01-19T12:35:49.068Z,176.00
2018-01-19T12:36:49.035Z,168.00
2018-01-19T12:37:48.989Z,120.00
2018-01-19T12:38:48.993Z,104.00
2018-01-19T12:39:49.008Z,104.00
2018-01-19T12:40:48.968Z,140.00
2018-01-19T12:41:48.932Z,148.00
2018-01-19T12:42:48.925Z,196.00
2018-01-19T12:43:48.894Z,216.00
2018-01-19T12:44:48.921Z,240.00
2018-01-19T12:45:48.875Z,216.00
2018-01-19T12:46:48.891Z,184.00
2018-01-19T12:47:48.817Z,152.00
2018-01-19T12:48:48.823Z,140.00
2018-01-19T12:49:48.841Z,140.00
2018-01-19T12:50:48.784Z,152.00
2018-01-19T12:51:48.785Z,152.00
2018-01-19T12:52:48.751Z,160.00
2018-01-19T12:53:48.755Z,148.00
2018-01-19T12:54:49.480Z,152.00
2018-01-19T12:55:48.722Z,164.00
2018-01-19T12:56:48.673Z,168.00
2018-01-19T12:57:48.699Z,176.00
2018-01-19T12:58:48.740Z,164.00
2018-01-19T12:59:49.462Z,172.00
2018-01-19T13:00:48.643Z,160.00
2018-01-19T13:01:55.490Z,132.00
2018-01-19T13:02:48.584Z,124.00